Time;durP1;ratioP1;P1;durP2;ratioP2;P2;SDS_P1;SDS_P2;PMS_P1;PMS_P2;Temp;Humidity;BMP_temperature;BMP_pressure;BME280_temperature;BME280_humidity;BME280_pressure;Samples;Min_cycle;Max_cycle;Signal;HPM_P1;HPM_P2
2022/09/12 00:01:48;;;;;;;0.50;0.50;;;10.30;99.90;;;;;;5071875;28;20573;-65
2022/09/12 00:04:14;;;;;;;0.60;0.60;;;10.30;99.90;;;;;;5071927;28;20224;-65
2022/09/12 00:06:40;;;;;;;0.60;0.60;;;10.20;99.90;;;;;;5053658;28;20205;-65
2022/09/12 00:09:10;;;;;;;0.60;0.60;;;10.10;99.90;;;;;;5071918;28;20193;-66
2022/09/12 00:11:41;;;;;;;0.88;0.88;;;10.10;99.90;;;;;;5072088;28;20243;-66
2022/09/12 00:14:10;;;;;;;0.60;0.60;;;10.00;99.90;;;;;;5053792;28;20631;-65
2022/09/12 00:16:36;;;;;;;0.63;0.63;;;10.00;99.90;;;;;;5071695;28;20201;-65
2022/09/12 00:19:04;;;;;;;1.23;1.08;;;9.90;99.90;;;;;;5071721;28;20188;-65
2022/09/12 00:21:32;;;;;;;0.80;0.80;;;9.90;99.90;;;;;;5071554;28;20675;-65
2022/09/12 00:23:58;;;;;;;0.70;0.70;;;9.80;99.90;;;;;;5071694;28;20196;-65
2022/09/12 00:26:24;;;;;;;0.60;0.60;;;9.80;99.90;;;;;;5071226;28;20197;-65
2022/09/12 00:28:50;;;;;;;0.73;0.73;;;9.70;99.90;;;;;;5071532;28;20564;-65
2022/09/12 00:31:18;;;;;;;1.75;1.40;;;9.70;99.90;;;;;;5053452;28;20291;-65
2022/09/12 00:33:45;;;;;;;1.00;1.00;;;9.80;99.90;;;;;;5071237;28;20286;-65
2022/09/12 00:36:17;;;;;;;0.50;0.50;;;9.80;99.90;;;;;;5071573;28;20321;-66
2022/09/12 00:38:43;;;;;;;1.13;1.02;;;9.80;99.90;;;;;;5071382;28;20223;-66
2022/09/12 00:41:30;;;;;;;2.30;0.90;;;9.80;99.90;;;;;;5071410;28;20204;-65
2022/09/12 00:44:23;;;;;;;0.70;0.70;;;9.80;99.90;;;;;;5071616;28;20204;-64
2022/09/12 00:47:00;;;;;;;0.60;0.60;;;9.80;99.90;;;;;;5091329;28;20188;-66
2022/09/12 00:49:32;;;;;;;0.70;0.70;;;9.70;99.90;;;;;;5091576;28;20188;-66
2022/09/12 00:52:11;;;;;;;1.00;1.00;;;9.60;99.90;;;;;;5091619;28;20281;-66
2022/09/12 00:55:02;;;;;;;0.70;0.70;;;9.60;99.90;;;;;;5072493;28;20254;-67
2022/09/12 00:58:00;;;;;;;0.60;0.60;;;9.60;99.90;;;;;;5048891;28;20212;-66
2022/09/12 01:00:27;;;;;;;0.98;0.98;;;9.50;99.90;;;;;;5047109;28;20217;-65
2022/09/12 01:03:03;;;;;;;1.27;1.17;;;9.50;99.90;;;;;;5071206;28;20196;-66
2022/09/12 01:05:32;;;;;;;0.60;0.60;;;9.40;99.90;;;;;;5071125;28;20724;-66
2022/09/12 01:08:01;;;;;;;0.70;0.70;;;9.40;99.90;;;;;;5071567;28;20652;-65
2022/09/12 01:10:27;;;;;;;0.60;0.60;;;9.30;99.90;;;;;;5070709;28;20197;-66
2022/09/12 01:12:53;;;;;;;0.50;0.50;;;9.30;99.90;;;;;;5070909;28;20274;-65
2022/09/12 01:15:19;;;;;;;0.70;0.70;;;9.20;99.90;;;;;;5071124;28;20436;-65
2022/09/12 01:18:09;;;;;;;1.02;0.93;;;9.20;99.90;;;;;;5071324;28;20192;-65
2022/09/12 01:21:00;;;;;;;0.80;0.80;;;9.20;99.90;;;;;;5074688;28;20207;-66
2022/09/12 01:23:38;;;;;;;0.73;0.73;;;9.10;99.90;;;;;;5074794;28;20242;-66
2022/09/12 01:26:22;;;;;;;0.60;0.60;;;9.10;99.90;;;;;;5075001;28;20185;-66
2022/09/12 01:28:57;;;;;;;0.60;0.60;;;9.00;99.90;;;;;;5075238;28;20193;-66
2022/09/12 01:32:12;;;;;;;0.57;0.57;;;9.00;99.90;;;;;;5074684;28;20199;-66
2022/09/12 01:34:48;;;;;;;0.80;0.80;;;9.00;99.90;;;;;;5010525;28;20206;-66
2022/09/12 01:37:24;;;;;;;1.60;1.23;;;8.90;99.90;;;;;;5012660;28;20206;-66
2022/09/12 01:39:59;;;;;;;0.75;0.75;;;9.00;99.90;;;;;;5012702;28;20658;-65
2022/09/12 01:42:39;;;;;;;0.60;0.60;;;8.90;99.90;;;;;;4992835;28;20289;-66
2022/09/12 01:45:16;;;;;;;0.60;0.60;;;8.90;99.90;;;;;;4992929;28;20199;-65
2022/09/12 01:47:52;;;;;;;0.60;0.60;;;9.00;99.90;;;;;;4992699;28;20452;-65
2022/09/12 01:50:26;;;;;;;1.10;1.05;;;9.00;99.90;;;;;;5006259;28;20202;-65
2022/09/12 01:52:54;;;;;;;0.60;0.60;;;9.00;99.90;;;;;;5012422;28;20240;-65
2022/09/12 01:55:32;;;;;;;0.60;0.60;;;9.00;99.90;;;;;;5012321;28;20217;-65
2022/09/12 01:58:05;;;;;;;0.60;0.60;;;9.10;99.90;;;;;;5012448;28;20194;-65
2022/09/12 02:00:34;;;;;;;0.65;0.65;;;9.20;99.90;;;;;;5011653;28;20703;-65
2022/09/12 02:03:21;;;;;;;0.93;0.93;;;9.20;99.90;;;;;;5012187;28;20242;-65
2022/09/12 02:06:00;;;;;;;0.60;0.60;;;9.30;99.90;;;;;;5012303;28;20255;-65
2022/09/12 02:08:30;;;;;;;0.65;0.65;;;9.30;99.90;;;;;;5038705;28;20249;-65
2022/09/12 02:11:01;;;;;;;0.70;0.70;;;9.40;99.90;;;;;;5074455;28;20203;-65
2022/09/12 02:13:46;;;;;;;0.50;0.50;;;9.40;99.90;;;;;;5073844;28;20578;-65
2022/09/12 02:16:45;;;;;;;0.60;0.60;;;9.50;99.90;;;;;;5074167;28;20196;-65
2022/09/12 02:19:17;;;;;;;1.20;0.93;;;9.50;99.90;;;;;;5074212;28;20291;-66
2022/09/12 02:21:52;;;;;;;0.55;0.55;;;9.50;99.90;;;;;;5073742;28;20647;-66
2022/09/12 02:24:20;;;;;;;0.68;0.68;;;9.50;99.90;;;;;;5073975;28;20275;-66
2022/09/12 02:26:51;;;;;;;0.50;0.50;;;9.60;99.90;;;;;;5073803;28;20242;-66
2022/09/12 02:29:17;;;;;;;0.70;0.65;;;9.60;99.90;;;;;;5073874;28;20193;-66
2022/09/12 02:32:07;;;;;;;1.15;1.08;;;9.60;99.90;;;;;;5074038;28;20215;-66
2022/09/12 02:35:11;;;;;;;0.60;0.60;;;9.60;99.90;;;;;;5064496;28;20216;-66
2022/09/12 02:38:02;;;;;;;0.60;0.60;;;9.60;99.90;;;;;;5049433;28;20224;-66
2022/09/12 02:40:29;;;;;;;0.60;0.60;;;9.70;99.90;;;;;;5073473;28;20291;-65
2022/09/12 02:42:55;;;;;;;0.60;0.60;;;9.70;99.90;;;;;;5074026;28;20220;-66
2022/09/12 02:45:22;;;;;;;0.68;0.68;;;9.70;99.90;;;;;;5073335;28;20196;-66
2022/09/12 02:47:48;;;;;;;0.75;0.75;;;9.60;99.90;;;;;;5073614;28;20216;-66
2022/09/12 02:50:13;;;;;;;1.08;0.90;;;9.60;99.90;;;;;;5073455;28;20695;-66
2022/09/12 02:52:41;;;;;;;0.80;0.80;;;9.60;99.90;;;;;;5073174;28;20245;-66
2022/09/12 02:55:07;;;;;;;0.65;0.65;;;9.50;99.90;;;;;;5073420;28;20732;-66
2022/09/12 02:57:32;;;;;;;0.88;0.88;;;9.50;99.90;;;;;;5073138;28;20197;-66
2022/09/12 03:00:00;;;;;;;0.60;0.60;;;9.40;99.90;;;;;;5073440;28;20711;-66
2022/09/12 03:03:05;;;;;;;1.10;0.90;;;9.40;99.90;;;;;;5068254;28;20208;-66
2022/09/12 03:05:33;;;;;;;0.60;0.60;;;9.40;99.90;;;;;;5067589;28;20279;-66
2022/09/12 03:08:36;;;;;;;0.60;0.60;;;9.40;99.90;;;;;;5073181;28;20578;-65
2022/09/12 03:11:31;;;;;;;0.70;0.70;;;9.50;99.90;;;;;;5055211;28;20611;-66
2022/09/12 03:14:38;;;;;;;0.65;0.65;;;9.40;99.90;;;;;;5062032;28;20224;-65
2022/09/12 03:17:32;;;;;;;0.73;0.73;;;9.40;99.90;;;;;;5072934;28;20196;-65
2022/09/12 03:20:08;;;;;;;0.57;0.57;;;9.40;99.90;;;;;;5072763;28;20221;-65
2022/09/12 03:23:05;;;;;;;0.77;0.68;;;9.40;99.90;;;;;;5072600;28;20192;-65
2022/09/12 03:25:54;;;;;;;0.60;0.60;;;9.40;99.90;;;;;;5042420;28;20213;-65
2022/09/12 03:28:21;;;;;;;0.63;0.63;;;9.40;99.90;;;;;;5072548;28;20185;-67
2022/09/12 03:30:50;;;;;;;0.63;0.63;;;9.30;99.90;;;;;;5072631;28;20254;-66
2022/09/12 03:33:20;;;;;;;0.70;0.70;;;9.30;99.90;;;;;;5072259;28;20254;-66
2022/09/12 03:35:47;;;;;;;0.70;0.70;;;9.20;99.90;;;;;;5072635;28;20205;-66
2022/09/12 03:38:13;;;;;;;0.85;0.85;;;9.20;99.90;;;;;;5072457;28;20196;-66
2022/09/12 03:40:39;;;;;;;0.60;0.60;;;9.10;99.90;;;;;;5072294;28;20592;-66
2022/09/12 03:43:07;;;;;;;0.65;0.65;;;9.10;99.90;;;;;;5071809;28;20193;-66
2022/09/12 03:45:34;;;;;;;0.95;0.95;;;9.20;99.90;;;;;;5072098;28;20674;-66
2022/09/12 03:48:00;;;;;;;0.60;0.60;;;9.10;99.90;;;;;;5072390;28;20192;-67
2022/09/12 03:50:25;;;;;;;0.90;0.90;;;9.10;99.90;;;;;;5072035;28;20200;-67
2022/09/12 03:52:51;;;;;;;1.00;1.00;;;9.10;99.90;;;;;;5072244;28;20257;-66
2022/09/12 03:55:17;;;;;;;0.60;0.60;;;9.20;99.90;;;;;;5072313;28;20185;-67
2022/09/12 03:57:43;;;;;;;0.70;0.70;;;9.20;99.90;;;;;;5072401;28;20196;-67
2022/09/12 04:00:10;;;;;;;0.60;0.60;;;9.20;99.90;;;;;;5066433;28;20248;-67
2022/09/12 04:02:35;;;;;;;0.60;0.60;;;9.20;99.90;;;;;;5071801;28;20564;-67
2022/09/12 04:05:02;;;;;;;1.10;1.00;;;9.30;99.90;;;;;;5072086;28;20185;-67
2022/09/12 04:07:28;;;;;;;0.80;0.80;;;9.30;99.90;;;;;;5071782;28;20185;-67
2022/09/12 04:09:54;;;;;;;0.60;0.60;;;9.30;99.90;;;;;;5071920;28;20555;-66
2022/09/12 04:12:19;;;;;;;0.60;0.60;;;9.30;99.90;;;;;;5071534;28;20220;-68
2022/09/12 04:14:45;;;;;;;0.70;0.70;;;9.40;99.90;;;;;;5071646;28;20551;-67
2022/09/12 04:17:11;;;;;;;0.60;0.60;;;9.40;99.90;;;;;;5071865;28;20655;-66
2022/09/12 04:19:37;;;;;;;0.57;0.57;;;9.40;99.90;;;;;;5071604;28;20640;-66
2022/09/12 04:22:03;;;;;;;0.70;0.70;;;9.40;99.90;;;;;;5071593;28;20205;-66
2022/09/12 04:24:29;;;;;;;0.50;0.50;;;9.40;99.90;;;;;;5071234;28;20189;-66
2022/09/12 04:26:54;;;;;;;0.60;0.60;;;9.50;99.90;;;;;;5071631;28;20275;-66
2022/09/12 04:29:20;;;;;;;0.60;0.60;;;9.50;99.90;;;;;;5068911;28;20207;-67
2022/09/12 04:31:46;;;;;;;0.60;0.60;;;9.50;99.90;;;;;;5053545;28;20299;-67
2022/09/12 04:34:12;;;;;;;1.30;0.85;;;9.50;99.90;;;;;;5063289;28;20200;-66
2022/09/12 04:36:38;;;;;;;0.60;0.60;;;9.60;99.90;;;;;;5071299;28;20716;-66
2022/09/12 04:39:04;;;;;;;0.60;0.60;;;9.60;99.90;;;;;;5084769;28;20196;-66
2022/09/12 04:41:35;;;;;;;0.60;0.60;;;9.70;99.90;;;;;;5091453;28;20585;-66
2022/09/12 04:44:07;;;;;;;1.05;0.98;;;9.70;99.90;;;;;;5091689;28;20189;-67
2022/09/12 04:46:36;;;;;;;0.50;0.50;;;9.80;99.90;;;;;;5091381;28;20192;-66
2022/09/12 04:49:02;;;;;;;0.73;0.73;;;9.80;99.90;;;;;;5091437;28;20273;-66
2022/09/12 04:51:33;;;;;;;0.77;0.77;;;9.80;99.90;;;;;;5091421;28;20196;-66
2022/09/12 04:54:05;;;;;;;0.50;0.50;;;9.90;99.90;;;;;;5090678;28;20276;-66
2022/09/12 04:56:30;;;;;;;0.80;0.80;;;10.00;99.90;;;;;;5078983;28;20555;-66
2022/09/12 04:58:59;;;;;;;0.60;0.60;;;10.00;99.90;;;;;;5071148;28;20192;-66
2022/09/12 05:01:26;;;;;;;1.02;1.00;;;10.10;99.90;;;;;;5070958;28;20212;-66
2022/09/12 05:03:53;;;;;;;0.75;0.75;;;10.10;99.90;;;;;;5071345;28;20243;-66
2022/09/12 05:06:24;;;;;;;0.60;0.60;;;10.20;99.90;;;;;;5071486;28;20656;-67
2022/09/12 05:08:51;;;;;;;0.70;0.70;;;10.20;99.90;;;;;;5091387;28;20195;-66
2022/09/12 05:11:20;;;;;;;0.75;0.75;;;10.20;99.90;;;;;;5091404;28;20625;-66
2022/09/12 05:13:45;;;;;;;0.65;0.65;;;10.30;99.90;;;;;;5091283;28;20216;-66
2022/09/12 05:16:14;;;;;;;0.60;0.60;;;10.30;99.90;;;;;;5091401;28;20196;-66
2022/09/12 05:18:40;;;;;;;0.80;0.80;;;10.40;99.90;;;;;;5091401;28;20200;-67
2022/09/12 05:21:08;;;;;;;0.55;0.55;;;10.40;99.90;;;;;;5091210;28;20678;-67
2022/09/12 05:23:34;;;;;;;0.60;0.60;;;10.40;99.90;;;;;;5091170;28;20195;-64
2022/09/12 05:26:01;;;;;;;0.60;0.60;;;10.50;99.90;;;;;;5064818;28;20208;-66
2022/09/12 05:28:35;;;;;;;0.57;0.57;;;10.50;99.90;;;;;;5071110;28;20609;-66
2022/09/12 05:31:07;;;;;;;1.42;1.33;;;10.60;99.90;;;;;;5071009;28;20192;-66
2022/09/12 05:33:36;;;;;;;1.00;1.00;;;10.60;99.90;;;;;;5070537;28;20200;-66
2022/09/12 05:36:04;;;;;;;0.90;0.65;;;10.70;99.90;;;;;;5070807;28;20244;-66
2022/09/12 05:38:29;;;;;;;0.70;0.70;;;10.80;99.90;;;;;;5052803;28;20196;-66
2022/09/12 05:41:13;;;;;;;0.80;0.80;;;10.80;99.90;;;;;;5052805;28;20621;-64
2022/09/12 05:43:41;;;;;;;2.78;1.58;;;10.90;99.90;;;;;;5052769;28;20200;-63
2022/09/12 05:46:12;;;;;;;0.60;0.60;;;11.00;99.90;;;;;;5071023;28;20193;-64
2022/09/12 05:48:40;;;;;;;0.50;0.50;;;11.00;99.90;;;;;;5070708;28;20303;-64
2022/09/12 05:51:19;;;;;;;0.60;0.60;;;11.10;99.90;;;;;;5070814;28;20200;-64
2022/09/12 05:53:47;;;;;;;0.68;0.68;;;11.20;99.90;;;;;;5072870;28;20719;-64
2022/09/12 05:56:16;;;;;;;0.85;0.85;;;11.30;99.90;;;;;;5072774;28;20196;-64
2022/09/12 05:58:44;;;;;;;0.80;0.80;;;11.40;99.90;;;;;;5090710;28;20189;-64
2022/09/12 06:01:18;;;;;;;2.25;0.88;;;11.40;99.90;;;;;;5090845;28;20338;-63
2022/09/12 06:03:54;;;;;;;0.95;0.95;;;11.60;99.90;;;;;;5080603;28;20251;-64
2022/09/12 06:06:23;;;;;;;0.50;0.50;;;11.70;99.90;;;;;;5073269;28;20185;-64
2022/09/12 06:08:51;;;;;;;0.80;0.80;;;11.80;99.90;;;;;;5074208;28;20192;-64
2022/09/12 06:11:19;;;;;;;0.80;0.80;;;11.90;99.90;;;;;;5074610;28;20242;-63
2022/09/12 06:13:45;;;;;;;0.50;0.50;;;12.00;99.90;;;;;;5054359;28;20217;-64
2022/09/12 06:16:17;;;;;;;0.80;0.80;;;12.10;99.90;;;;;;5054190;28;20198;-63
2022/09/12 06:18:48;;;;;;;0.50;0.50;;;12.20;99.90;;;;;;5036207;28;20656;-63
2022/09/12 06:21:15;;;;;;;1.05;1.05;;;12.20;99.90;;;;;;5054132;28;20612;-67
2022/09/12 06:23:41;;;;;;;0.60;0.60;;;12.30;99.90;;;;;;5053799;28;20277;-67
2022/09/12 06:26:09;;;;;;;0.50;0.50;;;12.50;99.90;;;;;;5053939;28;20243;-66
2022/09/12 06:28:37;;;;;;;0.60;0.60;;;12.50;99.90;;;;;;5053657;28;20280;-64
2022/09/12 06:31:11;;;;;;;0.70;0.70;;;12.60;99.90;;;;;;5053655;28;20276;-64
2022/09/12 06:33:39;;;;;;;0.68;0.68;;;12.60;99.90;;;;;;5053373;28;20227;-64
2022/09/12 06:36:07;;;;;;;1.20;1.10;;;12.70;99.90;;;;;;5053666;28;20213;-65
2022/09/12 06:38:33;;;;;;;0.65;0.65;;;12.60;99.90;;;;;;5053520;28;20193;-65
2022/09/12 06:40:59;;;;;;;0.70;0.70;;;12.60;99.90;;;;;;5053580;28;20212;-64
2022/09/12 06:43:27;;;;;;;0.70;0.70;;;12.60;99.90;;;;;;5054094;28;20186;-66
2022/09/12 06:45:52;;;;;;;0.50;0.50;;;12.70;99.90;;;;;;5053670;28;20243;-65
2022/09/12 06:48:18;;;;;;;1.20;1.10;;;12.70;99.90;;;;;;5057156;28;20607;-66
2022/09/12 06:50:56;;;;;;;0.68;0.68;;;12.60;99.90;;;;;;5057100;28;20193;-65
2022/09/12 06:53:22;;;;;;;0.80;0.73;;;12.70;99.90;;;;;;5053263;28;20209;-65
2022/09/12 06:55:54;;;;;;;2.13;1.20;;;12.60;99.90;;;;;;5053463;28;20316;-65
2022/09/12 06:58:20;;;;;;;0.93;0.93;;;12.60;99.90;;;;;;5052924;28;20193;-67
2022/09/12 07:00:46;;;;;;;1.15;0.93;;;12.60;99.90;;;;;;5053061;28;20232;-65
2022/09/12 07:03:11;;;;;;;0.60;0.60;;;12.60;99.90;;;;;;5052974;28;20691;-65
2022/09/12 07:05:37;;;;;;;0.60;0.60;;;12.60;99.90;;;;;;5053125;28;20242;-66
2022/09/12 07:08:02;;;;;;;1.23;1.13;;;12.70;99.90;;;;;;5053196;28;20609;-65
2022/09/12 07:10:29;;;;;;;1.75;0.77;;;12.90;99.90;;;;;;5031787;28;20202;-65
2022/09/12 07:12:55;;;;;;;0.68;0.63;;;12.90;99.90;;;;;;5065531;28;20220;-65
2022/09/12 07:15:21;;;;;;;0.77;0.77;;;13.10;99.90;;;;;;5072886;28;20626;-65
2022/09/12 07:17:46;;;;;;;0.50;0.50;;;13.10;99.90;;;;;;5071978;28;20193;-64
2022/09/12 07:20:12;;;;;;;0.60;0.60;;;13.10;99.90;;;;;;5072804;28;20184;-65
2022/09/12 07:22:38;;;;;;;0.50;0.50;;;13.20;99.90;;;;;;5072696;28;20193;-65
2022/09/12 07:25:04;;;;;;;0.63;0.63;;;13.30;99.90;;;;;;5072741;28;20626;-65
2022/09/12 07:27:29;;;;;;;0.60;0.60;;;13.40;99.90;;;;;;5072491;28;20702;-65
2022/09/12 07:29:55;;;;;;;0.57;0.57;;;13.50;99.90;;;;;;5072737;28;20263;-65
2022/09/12 07:32:21;;;;;;;14.45;0.98;;;13.60;99.90;;;;;;5072264;28;20298;-66
2022/09/12 07:34:48;;;;;;;0.60;0.60;;;13.60;99.90;;;;;;5072513;28;20200;-65
2022/09/12 07:37:14;;;;;;;0.70;0.70;;;13.70;99.90;;;;;;5072717;28;20539;-65
2022/09/12 07:39:41;;;;;;;0.63;0.57;;;13.80;99.90;;;;;;5072337;28;20228;-65
2022/09/12 07:42:07;;;;;;;0.77;0.77;;;13.90;99.90;;;;;;5072398;28;20205;-66
2022/09/12 07:44:33;;;;;;;0.80;0.80;;;14.00;99.90;;;;;;5072243;28;20564;-65
2022/09/12 07:46:59;;;;;;;0.40;0.40;;;14.20;99.90;;;;;;5072423;28;20199;-65
2022/09/12 07:49:24;;;;;;;0.50;0.50;;;14.20;99.90;;;;;;5072105;28;20185;-65
2022/09/12 07:51:50;;;;;;;1.08;0.60;;;14.30;99.90;;;;;;5072575;28;20266;-65
2022/09/12 07:54:16;;;;;;;0.50;0.50;;;14.40;99.90;;;;;;5072067;28;20551;-66
2022/09/12 07:56:42;;;;;;;0.60;0.60;;;14.60;99.90;;;;;;5071907;28;20200;-66
2022/09/12 07:59:08;;;;;;;0.82;0.82;;;14.60;99.90;;;;;;5072490;28;20591;-65
2022/09/12 08:01:34;;;;;;;0.40;0.40;;;14.60;99.90;;;;;;5071816;28;20204;-65
2022/09/12 08:04:00;;;;;;;0.50;0.50;;;14.60;99.90;;;;;;5072129;28;20184;-65
2022/09/12 08:06:29;;;;;;;0.77;0.73;;;14.60;99.90;;;;;;5071832;28;20192;-65
2022/09/12 08:08:57;;;;;;;0.45;0.45;;;14.50;99.90;;;;;;5071864;28;20197;-66
2022/09/12 08:11:23;;;;;;;0.50;0.50;;;14.60;99.90;;;;;;5071648;28;20613;-66
2022/09/12 08:13:50;;;;;;;1.05;0.68;;;14.70;99.90;;;;;;5051666;28;20323;-65
2022/09/12 08:16:20;;;;;;;1.00;0.98;;;14.80;99.90;;;;;;5052595;28;20205;-65
2022/09/12 08:18:46;;;;;;;2.25;1.10;;;14.90;99.90;;;;;;5057655;28;20232;-65
2022/09/12 08:21:18;;;;;;;0.75;0.75;;;15.00;99.90;;;;;;5051720;28;20237;-65
2022/09/12 08:23:44;;;;;;;0.40;0.40;;;15.20;99.90;;;;;;5062645;28;20189;-65
2022/09/12 08:26:10;;;;;;;0.57;0.57;;;15.20;99.90;;;;;;5071761;28;20196;-66
2022/09/12 08:28:39;;;;;;;0.93;0.63;;;15.40;99.90;;;;;;5071213;28;20219;-66
2022/09/12 08:31:10;;;;;;;0.40;0.40;;;15.50;99.90;;;;;;5071538;28;20188;-66
2022/09/12 08:33:36;;;;;;;0.93;0.93;;;15.60;99.90;;;;;;5061990;28;20221;-66
2022/09/12 08:36:15;;;;;;;0.50;0.50;;;15.60;99.90;;;;;;5051656;28;20266;-66
2022/09/12 08:38:43;;;;;;;2.10;1.33;;;15.60;99.90;;;;;;5051362;28;20224;-65
2022/09/12 08:41:21;;;;;;;0.68;0.68;;;15.70;99.90;;;;;;5050978;28;20611;-66
2022/09/12 08:43:53;;;;;;;1.15;0.65;;;15.80;99.90;;;;;;5038884;28;20206;-65
2022/09/12 08:46:56;;;;;;;0.55;0.55;;;15.80;99.90;;;;;;5042102;28;20204;-66
2022/09/12 08:49:40;;;;;;;0.60;0.60;;;16.10;99.90;;;;;;5034589;28;20202;-66
2022/09/12 08:52:18;;;;;;;0.50;0.50;;;16.40;99.90;;;;;;5033179;28;20563;-65
2022/09/12 08:54:46;;;;;;;0.50;0.50;;;16.70;99.90;;;;;;5050770;28;20652;-66
2022/09/12 08:57:14;;;;;;;0.93;0.80;;;16.90;99.90;;;;;;5051150;28;20433;-66
2022/09/12 08:59:43;;;;;;;0.50;0.50;;;16.90;99.90;;;;;;5050967;28;20198;-65
2022/09/12 09:02:43;;;;;;;0.65;0.65;;;17.00;99.90;;;;;;5033108;28;20232;-65
2022/09/12 09:05:40;;;;;;;1.00;0.63;;;17.00;99.90;;;;;;5051223;28;20193;-65
2022/09/12 09:08:34;;;;;;;0.95;0.93;;;17.10;99.90;;;;;;5051435;28;20682;-66
2022/09/12 09:11:08;;;;;;;0.32;0.32;;;17.10;99.90;;;;;;5050923;28;20205;-66
2022/09/12 09:16:41;;;;;;;0.40;0.40;;;17.20;99.90;;;;;;5070947;28;20281;-66
2022/09/12 09:19:31;;;;;;;0.50;0.50;;;17.40;99.90;;;;;;5070594;28;20196;-66
2022/09/12 09:22:04;;;;;;;0.40;0.40;;;17.70;99.90;;;;;;5071215;28;20217;-66
2022/09/12 09:24:44;;;;;;;0.50;0.50;;;17.90;99.90;;;;;;5070878;28;20200;-66
2022/09/12 09:27:45;;;;;;;1.17;0.68;;;17.90;99.90;;;;;;5071067;28;20203;-66
2022/09/12 09:30:17;;;;;;;0.50;0.50;;;17.70;99.90;;;;;;5056517;28;20677;-66
2022/09/12 09:32:48;;;;;;;0.30;0.30;;;17.80;99.90;;;;;;5052171;28;20207;-67
2022/09/12 09:35:18;;;;;;;0.40;0.40;;;17.80;99.90;;;;;;5070821;28;20234;-66
2022/09/12 09:38:11;;;;;;;0.90;0.60;;;17.80;99.90;;;;;;5070794;28;20234;-66
2022/09/12 09:40:48;;;;;;;0.38;0.38;;;17.60;99.90;;;;;;5072774;28;20679;-66
2022/09/12 09:43:21;;;;;;;0.60;0.60;;;17.60;99.90;;;;;;5074810;28;20192;-66
2022/09/12 09:45:48;;;;;;;0.60;0.60;;;17.80;99.90;;;;;;5074672;28;20211;-67
2022/09/12 09:48:30;;;;;;;0.30;0.30;;;17.80;99.90;;;;;;5074597;28;20212;-66
2022/09/12 09:50:59;;;;;;;0.30;0.30;;;17.80;99.90;;;;;;5074507;28;20723;-66
2022/09/12 09:53:37;;;;;;;0.40;0.40;;;17.90;99.90;;;;;;5073662;28;20353;-66
2022/09/12 09:56:26;;;;;;;0.63;0.63;;;17.70;99.90;;;;;;5074763;28;20205;-65
2022/09/12 09:58:52;;;;;;;0.60;0.60;;;17.50;99.90;;;;;;5073216;28;20228;-66
2022/09/12 10:01:18;;;;;;;0.50;0.50;;;17.20;99.90;;;;;;5074024;28;20248;-67
2022/09/12 10:03:55;;;;;;;0.70;0.70;;;17.00;99.90;;;;;;5074443;28;20649;-66
2022/09/12 10:06:33;;;;;;;0.73;0.70;;;17.00;99.90;;;;;;5073987;28;20237;-66
2022/09/12 10:09:26;;;;;;;0.73;0.73;;;17.10;99.90;;;;;;5074111;28;20189;-66
2022/09/12 10:11:53;;;;;;;0.35;0.35;;;17.20;99.90;;;;;;5070726;28;20706;-66
2022/09/12 10:14:37;;;;;;;0.68;0.68;;;17.40;99.90;;;;;;5073797;28;20254;-67
2022/09/12 10:17:27;;;;;;;0.30;0.30;;;17.60;99.90;;;;;;5055709;28;20601;-67
2022/09/12 10:19:54;;;;;;;0.50;0.50;;;17.70;99.90;;;;;;5073854;28;20401;-66
2022/09/12 10:22:23;;;;;;;0.55;0.38;;;17.80;99.90;;;;;;5073688;28;20703;-67
2022/09/12 10:24:55;;;;;;;0.30;0.30;;;18.00;99.90;;;;;;5073723;28;20193;-66
2022/09/12 10:27:24;;;;;;;0.40;0.40;;;18.10;99.90;;;;;;5055437;28;20200;-67
2022/09/12 10:30:02;;;;;;;0.47;0.47;;;18.20;99.90;;;;;;5073720;28;20185;-66
2022/09/12 10:32:30;;;;;;;0.60;0.60;;;18.50;99.90;;;;;;5073610;28;20201;-66
2022/09/12 10:35:07;;;;;;;0.80;0.60;;;18.40;99.90;;;;;;5073924;28;20683;-66
2022/09/12 10:37:37;;;;;;;0.38;0.38;;;18.50;99.90;;;;;;5073419;28;20199;-66
2022/09/12 10:40:08;;;;;;;0.30;0.30;;;18.60;99.90;;;;;;5073792;28;20201;-65
2022/09/12 10:42:48;;;;;;;0.40;0.40;;;18.40;99.90;;;;;;5073370;28;20300;-65
2022/09/12 10:45:23;;;;;;;0.82;0.60;;;18.30;99.90;;;;;;5073433;28;20185;-65
2022/09/12 10:47:50;;;;;;;0.30;0.30;;;18.50;99.90;;;;;;5073402;28;20196;-66
2022/09/12 10:50:20;;;;;;;0.43;0.43;;;18.70;99.90;;;;;;5070784;28;20193;-66
2022/09/12 10:52:45;;;;;;;0.30;0.30;;;18.90;99.90;;;;;;5071906;28;20636;-66
2022/09/12 10:55:14;;;;;;;0.85;0.50;;;19.00;99.90;;;;;;5047382;28;20251;-66
2022/09/12 10:57:58;;;;;;;0.57;0.57;;;18.80;99.90;;;;;;5053136;28;20192;-65
2022/09/12 11:00:29;;;;;;;0.65;0.60;;;18.70;99.90;;;;;;5052962;28;20605;-65
2022/09/12 11:02:57;;;;;;;0.40;0.40;;;18.70;99.90;;;;;;5052977;28;20197;-66
2022/09/12 11:05:37;;;;;;;0.22;0.22;;;19.10;99.90;;;;;;5052972;28;20287;-66
2022/09/12 11:08:08;;;;;;;0.40;0.40;;;19.30;99.90;;;;;;5053141;28;20193;-66
2022/09/12 11:10:54;;;;;;;2.60;0.73;;;19.30;99.90;;;;;;5072938;28;20217;-66
2022/09/12 11:13:42;;;;;;;0.32;0.32;;;19.50;99.90;;;;;;5040869;28;20245;-66
2022/09/12 11:16:30;;;;;;;0.47;0.47;;;19.60;99.90;;;;;;5035113;28;20244;-67
2022/09/12 11:19:08;;;;;;;0.30;0.30;;;19.70;99.90;;;;;;5050060;28;20198;-66
2022/09/12 11:21:52;;;;;;;1.10;1.00;;;19.80;99.90;;;;;;5050004;28;20626;-66
2022/09/12 11:24:50;;;;;;;0.40;0.40;;;19.70;99.90;;;;;;5052666;28;20189;-67
2022/09/12 11:27:28;;;;;;;0.40;0.40;;;19.80;99.90;;;;;;5052731;28;20710;-66
2022/09/12 11:30:02;;;;;;;0.30;0.30;;;20.10;99.90;;;;;;5052659;28;20722;-66
2022/09/12 11:32:48;;;;;;;0.30;0.30;;;20.30;99.90;;;;;;5052489;28;20197;-66
2022/09/12 11:35:29;;;;;;;0.30;0.30;;;20.70;99.90;;;;;;5052549;28;20280;-66
2022/09/12 11:38:25;;;;;;;0.45;0.45;;;21.20;99.90;;;;;;5052512;28;20200;-66
2022/09/12 11:41:11;;;;;;;0.20;0.20;;;21.70;99.90;;;;;;5052269;28;20216;-66
2022/09/12 11:44:01;;;;;;;0.90;0.70;;;21.50;99.90;;;;;;5032206;28;20254;-66
2022/09/12 11:46:38;;;;;;;1.67;0.55;;;21.20;99.90;;;;;;5051887;28;20216;-66
2022/09/12 11:49:06;;;;;;;0.32;0.32;;;20.60;99.90;;;;;;5052147;28;20284;-66
2022/09/12 11:51:42;;;;;;;0.45;0.40;;;20.30;99.90;;;;;;5034028;28;20243;-66
2022/09/12 11:54:13;;;;;;;0.30;0.30;;;20.20;99.90;;;;;;5042012;28;20217;-66
2022/09/12 11:56:45;;;;;;;0.60;0.60;;;20.50;99.90;;;;;;5032104;28;20687;-66
2022/09/12 11:59:29;;;;;;;0.30;0.30;;;20.90;99.90;;;;;;5014551;28;20186;-66
2022/09/12 12:01:58;;;;;;;0.50;0.50;;;21.00;99.90;;;;;;5032326;28;20499;-66
2022/09/12 12:04:36;;;;;;;0.20;0.20;;;20.50;99.90;;;;;;5031510;28;20192;-66
2022/09/12 12:07:09;;;;;;;0.40;0.30;;;20.10;99.90;;;;;;5014290;28;20641;-66
2022/09/12 12:09:44;;;;;;;0.30;0.30;;;19.90;99.90;;;;;;5031802;28;20661;-66
2022/09/12 12:12:16;;;;;;;0.40;0.40;;;20.10;99.90;;;;;;5031166;28;20286;-66
2022/09/12 12:14:46;;;;;;;0.20;0.20;;;20.40;99.90;;;;;;5031580;28;20194;-66
2022/09/12 12:17:38;;;;;;;0.30;0.30;;;20.40;99.90;;;;;;5050720;28;20700;-66
2022/09/12 12:20:04;;;;;;;0.40;0.40;;;20.30;99.90;;;;;;5047597;28;20683;-66
2022/09/12 12:22:30;;;;;;;0.40;0.40;;;20.20;99.90;;;;;;5051454;28;20205;-66
2022/09/12 12:25:23;;;;;;;0.40;0.40;;;19.80;99.90;;;;;;5051716;28;20287;-66
2022/09/12 12:27:57;;;;;;;0.45;0.45;;;19.60;99.90;;;;;;5051827;28;20204;-67
2022/09/12 12:30:29;;;;;;;1.98;0.60;;;19.40;99.90;;;;;;5051262;28;20194;-66
2022/09/12 12:33:21;;;;;;;0.30;0.30;;;19.20;99.90;;;;;;5051408;28;20189;-66
2022/09/12 12:35:59;;;;;;;1.00;0.70;;;19.10;99.90;;;;;;5050716;28;20221;-66
2022/09/12 12:38:29;;;;;;;0.40;0.40;;;19.00;99.90;;;;;;5051065;28;20235;-66
2022/09/12 12:41:16;;;;;;;0.60;0.35;;;18.80;99.90;;;;;;5051256;28;20304;-66
2022/09/12 12:43:46;;;;;;;0.43;0.40;;;18.60;99.90;;;;;;5050613;28;20217;-66
2022/09/12 12:46:14;;;;;;;0.38;0.38;;;18.40;99.90;;;;;;5051230;28;20567;-66
2022/09/12 12:48:54;;;;;;;0.40;0.40;;;18.20;99.90;;;;;;5051181;28;20687;-66
2022/09/12 12:51:35;;;;;;;0.40;0.40;;;18.10;99.90;;;;;;5050942;28;20201;-66
2022/09/12 12:54:04;;;;;;;0.40;0.40;;;18.10;99.90;;;;;;5042367;28;20244;-66
2022/09/12 12:56:38;;;;;;;0.30;0.30;;;18.10;99.90;;;;;;5031160;28;20244;-66
2022/09/12 12:59:18;;;;;;;0.30;0.30;;;18.10;99.90;;;;;;5031157;28;20657;-65
2022/09/12 13:01:53;;;;;;;1.10;0.50;;;17.90;99.90;;;;;;5030924;28;20202;-66
2022/09/12 13:04:23;;;;;;;0.45;0.30;;;17.70;99.90;;;;;;5029998;28;20194;-66
2022/09/12 13:07:18;;;;;;;0.30;0.30;;;17.60;99.90;;;;;;5031205;28;20613;-66
2022/09/12 13:09:51;;;;;;;0.47;0.47;;;17.60;99.90;;;;;;5030991;28;20203;-66
2022/09/12 13:12:44;;;;;;;1.58;0.98;;;17.50;99.90;;;;;;5040399;28;20262;-66
2022/09/12 13:15:34;;;;;;;0.30;0.30;;;17.50;99.90;;;;;;5052214;28;20204;-66
2022/09/12 13:18:03;;;;;;;1.05;0.57;;;17.30;99.90;;;;;;5055091;28;20193;-66
2022/09/12 13:20:34;;;;;;;0.30;0.30;;;17.20;99.90;;;;;;5054687;28;20197;-65
2022/09/12 13:23:00;;;;;;;0.55;0.55;;;17.10;99.90;;;;;;5037004;28;20193;-66
2022/09/12 13:25:30;;;;;;;0.40;0.40;;;17.00;99.90;;;;;;5054869;28;20203;-65